createdAt,value
2022-08-12T00:00:00.244Z,73.81
2022-08-12T00:02:45.642Z,75.25
2022-08-12T00:05:33.776Z,76.31
2022-08-12T00:08:32.996Z,77.45
2022-08-12T00:11:22.500Z,75.02
2022-08-12T00:14:07.843Z,79.93
2022-08-12T00:16:56.239Z,78.66
2022-08-12T00:19:41.538Z,80.55
2022-08-12T00:22:28.457Z,84.05
2022-08-12T00:25:17.897Z,74.82
2022-08-12T00:28:05.638Z,75.97
2022-08-12T00:30:51.506Z,76.52
2022-08-12T00:33:52.471Z,81.62
2022-08-12T00:36:43.800Z,81.69
2022-08-12T00:39:31.197Z,79.31
2022-08-12T00:42:10.732Z,80.87
2022-08-12T00:44:39.389Z,76.54
2022-08-12T00:47:07.871Z,79.16
2022-08-12T00:49:54.989Z,80.26
2022-08-12T00:52:23.976Z,76.85
2022-08-12T00:54:53.742Z,78.00
2022-08-12T00:57:24.472Z,83.92
2022-08-12T00:59:55.085Z,85.82
2022-08-12T01:02:25.568Z,91.07
2022-08-12T01:05:14.603Z,90.01
2022-08-12T01:08:01.558Z,94.17
2022-08-12T01:10:49.350Z,90.05
2022-08-12T01:13:20.518Z,94.57
2022-08-12T01:15:51.239Z,97.39
2022-08-12T01:18:20.877Z,94.21
2022-08-12T01:21:11.875Z,97.06
2022-08-12T01:24:30.305Z,94.20
2022-08-12T01:26:56.023Z,96.36
2022-08-12T01:29:26.815Z,99.49
2022-08-12T01:32:05.196Z,97.89
2022-08-12T01:34:37.361Z,100.00
2022-08-12T01:37:08.289Z,100.00
2022-08-12T01:40:34.980Z,99.67
2022-08-12T01:42:34.102Z,100.00
2022-08-12T01:45:03.732Z,100.00
2022-08-12T01:47:43.081Z,100.00
2022-08-12T01:50:22.280Z,99.38
2022-08-12T01:52:59.418Z,98.68
2022-08-12T01:55:33.311Z,100.00
2022-08-12T01:58:13.129Z,97.80
2022-08-12T02:00:55.480Z,99.64
2022-08-12T02:03:59.579Z,100.00
2022-08-12T02:06:50.964Z,100.00
2022-08-12T02:09:44.576Z,100.00
2022-08-12T02:12:28.518Z,100.00
2022-08-12T02:15:12.923Z,100.00
2022-08-12T02:17:55.397Z,100.00
2022-08-12T02:20:35.392Z,100.00
2022-08-12T02:23:21.318Z,100.00
2022-08-12T02:25:51.931Z,100.00
2022-08-12T02:28:19.839Z,100.00
2022-08-12T02:30:49.264Z,100.00
2022-08-12T02:33:19.024Z,100.00
2022-08-12T02:35:47.273Z,100.00
2022-08-12T02:38:15.134Z,100.00
2022-08-12T02:40:45.390Z,100.00
2022-08-12T02:43:20.570Z,100.00
2022-08-12T02:45:54.446Z,100.00
2022-08-12T02:48:27.898Z,100.00
2022-08-12T02:50:58.708Z,100.00
2022-08-12T02:53:28.248Z,100.00
2022-08-12T02:55:57.355Z,100.00
2022-08-12T02:58:33.414Z,100.00
2022-08-12T03:01:09.653Z,100.00
2022-08-12T03:03:39.212Z,100.00
2022-08-12T03:06:11.348Z,100.00
2022-08-12T03:08:42.237Z,100.00
2022-08-12T03:11:16.385Z,100.00
2022-08-12T03:13:52.149Z,100.00
2022-08-12T03:16:21.953Z,100.00
2022-08-12T03:18:51.525Z,100.00
2022-08-12T03:21:54.660Z,100.00
2022-08-12T03:24:09.183Z,100.00
2022-08-12T03:26:38.231Z,100.00
2022-08-12T03:29:07.626Z,100.00
2022-08-12T03:31:36.756Z,100.00
2022-08-12T03:34:07.737Z,100.00
2022-08-12T03:36:37.626Z,100.00
2022-08-12T03:39:36.294Z,100.00
2022-08-12T03:42:17.196Z,100.00
2022-08-12T03:45:11.572Z,100.00
2022-08-12T03:48:04.665Z,100.00
2022-08-12T03:50:50.974Z,100.00
2022-08-12T03:53:43.314Z,100.00
2022-08-12T03:56:28.626Z,100.00
2022-08-12T03:59:14.339Z,100.00
2022-08-12T04:01:42.623Z,100.00
2022-08-12T04:04:11.826Z,100.00
2022-08-12T04:06:44.828Z,100.00
2022-08-12T04:09:14.834Z,100.00
2022-08-12T04:12:03.386Z,100.00
2022-08-12T04:14:31.305Z,100.00
2022-08-12T04:16:59.559Z,100.00
2022-08-12T04:19:29.863Z,100.00
2022-08-12T04:22:01.114Z,100.00
2022-08-12T04:24:34.937Z,100.00
2022-08-12T04:27:03.685Z,100.00
2022-08-12T04:30:30.778Z,100.00
2022-08-12T04:32:19.494Z,100.00
2022-08-12T04:34:48.634Z,100.00
2022-08-12T04:37:17.007Z,100.00
2022-08-12T04:39:46.861Z,100.00
2022-08-12T04:42:14.737Z,100.00
2022-08-12T04:44:43.473Z,100.00
2022-08-12T04:47:12.772Z,100.00
2022-08-12T04:49:41.119Z,100.00
2022-08-12T04:52:10.861Z,100.00
2022-08-12T04:54:38.733Z,100.00
2022-08-12T04:57:09.461Z,100.00
2022-08-12T04:59:47.005Z,100.00
2022-08-12T05:02:20.526Z,100.00
2022-08-12T05:04:52.143Z,100.00
2022-08-12T05:07:24.303Z,100.00
2022-08-12T05:10:01.918Z,100.00
2022-08-12T05:12:36.483Z,100.00
2022-08-12T05:15:19.811Z,100.00
2022-08-12T05:17:53.473Z,100.00
2022-08-12T05:20:22.558Z,97.18
2022-08-12T05:22:53.153Z,95.79
2022-08-12T05:25:25.476Z,97.21
2022-08-12T05:27:55.494Z,92.28
2022-08-12T05:30:27.243Z,91.95
2022-08-12T05:32:59.803Z,88.16
2022-08-12T05:35:28.712Z,83.93
2022-08-12T05:38:11.698Z,86.83
2022-08-12T05:40:39.573Z,89.51
2022-08-12T05:43:07.837Z,84.54
2022-08-12T05:45:35.554Z,85.08
2022-08-12T05:48:03.632Z,80.06
2022-08-12T05:50:31.332Z,80.20
2022-08-12T05:53:00.441Z,78.53
2022-08-12T05:55:31.344Z,79.51
2022-08-12T05:57:59.447Z,75.80
2022-08-12T06:00:29.253Z,77.15
2022-08-12T06:03:01.142Z,77.00
2022-08-12T06:05:29.587Z,76.31
2022-08-12T06:08:01.775Z,72.26
2022-08-12T06:10:33.170Z,70.84
2022-08-12T06:13:02.447Z,72.09
2022-08-12T06:15:31.591Z,71.50
2022-08-12T06:18:05.283Z,70.20
2022-08-12T06:20:41.758Z,68.91
2022-08-12T06:23:11.922Z,66.58
2022-08-12T06:25:42.071Z,68.25
2022-08-12T06:28:17.369Z,68.16
2022-08-12T06:30:57.238Z,68.95
2022-08-12T06:33:55.723Z,71.88
2022-08-12T06:36:25.030Z,69.52
2022-08-12T06:38:58.453Z,66.72
2022-08-12T06:42:10.783Z,69.55
2022-08-12T06:44:32.888Z,66.98
2022-08-12T06:47:00.937Z,64.85
2022-08-12T06:49:35.699Z,68.15
2022-08-12T06:52:04.382Z,65.49
2022-08-12T06:54:33.229Z,61.65
2022-08-12T06:57:57.327Z,60.71
2022-08-12T06:59:51.024Z,61.45
2022-08-12T07:02:19.712Z,61.74
2022-08-12T07:04:48.125Z,58.38
2022-08-12T07:07:16.127Z,58.12
2022-08-12T07:10:05.372Z,60.56
2022-08-12T07:12:33.153Z,61.48
2022-08-12T07:15:02.032Z,60.22
2022-08-12T07:17:35.916Z,59.38
2022-08-12T07:20:05.560Z,58.85
2022-08-12T07:22:34.046Z,56.88
2022-08-12T07:25:18.633Z,59.50
2022-08-12T07:27:47.795Z,55.78
2022-08-12T07:30:15.549Z,53.86
2022-08-12T07:32:51.451Z,57.20
2022-08-12T07:35:20.253Z,58.35
2022-08-12T07:37:50.389Z,53.56
2022-08-12T07:40:18.877Z,51.40
2022-08-12T07:42:47.987Z,53.19
2022-08-12T07:45:15.995Z,52.23
2022-08-12T07:47:44.780Z,49.68
2022-08-12T07:50:13.863Z,51.86
2022-08-12T07:52:46.942Z,50.25
2022-08-12T07:55:16.607Z,50.22
2022-08-12T07:57:55.836Z,50.41
2022-08-12T08:00:24.269Z,47.94
2022-08-12T08:02:53.366Z,46.93
2022-08-12T08:05:22.044Z,47.96
2022-08-12T08:07:50.022Z,47.85
2022-08-12T08:10:18.126Z,46.51
2022-08-12T08:12:53.546Z,46.73
2022-08-12T08:15:44.540Z,45.58
2022-08-12T08:18:18.425Z,44.33
2022-08-12T08:20:55.427Z,44.47
2022-08-12T08:23:29.323Z,43.62
2022-08-12T08:26:03.088Z,45.01
2022-08-12T08:28:36.466Z,43.70
2022-08-12T08:31:05.767Z,42.91
2022-08-12T08:34:09.652Z,42.63
2022-08-12T08:36:23.511Z,42.38
2022-08-12T08:38:58.447Z,41.94
2022-08-12T08:42:15.461Z,42.62
2022-08-12T08:44:32.153Z,39.52
2022-08-12T08:47:03.446Z,41.57
2022-08-12T08:49:31.170Z,43.44
2022-08-12T08:51:59.012Z,41.69
2022-08-12T08:54:26.770Z,39.28
2022-08-12T08:56:54.483Z,38.84
2022-08-12T08:59:22.408Z,40.48
2022-08-12T09:01:50.274Z,38.67
2022-08-12T09:05:12.984Z,38.34
2022-08-12T09:13:02.510Z,38.96
2022-08-12T09:15:36.317Z,38.27
2022-08-12T09:18:08.479Z,36.90
2022-08-12T09:20:40.114Z,37.54
2022-08-12T09:23:57.600Z,37.40
2022-08-12T09:28:53.272Z,37.90
2022-08-12T09:32:07.944Z,38.34
2022-08-12T09:34:27.409Z,37.63
2022-08-12T09:37:02.908Z,36.33
2022-08-12T09:40:05.290Z,37.18
2022-08-12T09:43:11.249Z,36.72
2022-08-12T09:46:20.283Z,38.84
2022-08-12T09:48:36.104Z,36.05
2022-08-12T09:51:17.097Z,35.99
2022-08-12T09:54:09.226Z,36.54
2022-08-12T09:57:02.283Z,34.31
2022-08-12T10:00:17.031Z,35.82
2022-08-12T10:02:42.801Z,35.78
2022-08-12T10:05:04.437Z,33.89
2022-08-12T10:07:39.530Z,36.16
2022-08-12T10:10:24.897Z,33.26
2022-08-12T10:13:13.237Z,34.23
2022-08-12T10:16:02.145Z,32.13
2022-08-12T10:18:35.284Z,31.59
2022-08-12T10:21:07.321Z,31.93
2022-08-12T10:23:39.962Z,31.79
2022-08-12T10:26:38.736Z,32.05
2022-08-12T10:30:38.204Z,31.03
2022-08-12T10:32:20.949Z,30.00
2022-08-12T10:34:53.726Z,30.46
2022-08-12T10:38:38.064Z,32.44
2022-08-12T10:40:19.883Z,31.69
2022-08-12T10:43:07.969Z,30.80
2022-08-12T10:45:38.403Z,32.25
2022-08-12T10:48:19.487Z,31.01
2022-08-12T10:51:02.327Z,29.34
2022-08-12T10:53:45.864Z,28.22
2022-08-12T10:56:15.369Z,30.36
2022-08-12T10:58:46.855Z,31.40
2022-08-12T11:01:49.419Z,30.62
2022-08-12T11:04:27.575Z,28.89
2022-08-12T11:07:09.187Z,31.26
2022-08-12T11:10:00.427Z,27.78
2022-08-12T11:12:56.184Z,28.77
2022-08-12T11:15:32.657Z,28.03
2022-08-12T11:18:03.390Z,28.49
2022-08-12T11:20:31.483Z,28.53
2022-08-12T11:23:04.187Z,27.43
2022-08-12T11:25:57.884Z,28.28
2022-08-12T11:28:34.036Z,27.98
2022-08-12T11:31:05.004Z,27.05
2022-08-12T11:34:06.138Z,27.86
2022-08-12T11:36:22.359Z,26.35
2022-08-12T11:38:51.333Z,26.08
2022-08-12T11:41:31.018Z,25.09
2022-08-12T11:44:30.639Z,25.04
2022-08-12T11:46:51.191Z,24.83
2022-08-12T11:49:31.305Z,22.23
2022-08-12T11:52:01.881Z,22.07
2022-08-12T11:54:30.285Z,21.26
2022-08-12T11:56:59.393Z,23.48
2022-08-12T12:02:20.520Z,21.72
2022-08-12T12:04:52.704Z,23.23
2022-08-12T12:07:33.972Z,24.32
2022-08-12T12:10:12.529Z,22.71
2022-08-12T12:12:40.500Z,21.08
2022-08-12T12:15:10.531Z,20.64
2022-08-12T12:17:43.373Z,22.67
2022-08-12T12:20:12.778Z,23.66
2022-08-12T12:22:44.181Z,23.94
2022-08-12T12:25:14.042Z,22.20
2022-08-12T12:28:05.407Z,23.66
2022-08-12T12:30:34.855Z,25.26
2022-08-12T12:33:05.041Z,24.83
2022-08-12T12:36:19.812Z,23.48
2022-08-12T12:38:25.156Z,23.08
2022-08-12T12:40:53.637Z,22.97
2022-08-12T12:43:28.898Z,22.77
2022-08-12T12:46:10.608Z,23.51
2022-08-12T12:48:44.098Z,20.68
2022-08-12T12:51:49.525Z,21.88
2022-08-12T12:54:08.667Z,22.34
2022-08-12T12:56:42.265Z,22.36
2022-08-12T12:59:56.176Z,22.54
2022-08-12T13:02:08.189Z,21.12
2022-08-12T13:04:38.115Z,19.97
2022-08-12T13:07:06.568Z,22.08
2022-08-12T13:09:36.178Z,20.36
2022-08-12T13:12:08.222Z,22.45
2022-08-12T13:14:39.641Z,20.36
2022-08-12T13:17:09.611Z,19.37
2022-08-12T13:19:45.215Z,20.36
2022-08-12T13:22:20.688Z,18.88
2022-08-12T13:24:52.223Z,21.10
2022-08-12T13:27:28.301Z,19.00
2022-08-12T13:30:06.882Z,20.92
2022-08-12T13:32:39.302Z,22.57
2022-08-12T13:35:19.221Z,20.30
2022-08-12T13:37:55.270Z,23.38
2022-08-12T13:40:24.656Z,21.55
2022-08-12T13:42:53.293Z,20.74
2022-08-12T13:45:21.199Z,21.75
2022-08-12T13:47:55.319Z,21.44
2022-08-12T13:50:29.792Z,21.06
2022-08-12T13:52:57.794Z,20.47
2022-08-12T13:55:30.925Z,23.52
2022-08-12T13:58:00.144Z,21.69
2022-08-12T14:00:38.424Z,20.92
2022-08-12T14:03:07.401Z,19.72
2022-08-12T14:05:39.774Z,21.36
2022-08-12T14:08:08.964Z,20.39
2022-08-12T14:10:50.831Z,20.64
2022-08-12T14:14:03.800Z,22.29
2022-08-12T14:16:15.287Z,19.68
2022-08-12T14:19:03.091Z,22.28
2022-08-12T14:21:59.240Z,21.56
2022-08-12T14:24:21.304Z,21.56
2022-08-12T14:26:55.026Z,24.23
2022-08-12T14:29:56.062Z,22.66
2022-08-12T14:32:16.671Z,22.96
2022-08-12T14:34:44.714Z,19.57
2022-08-12T14:37:54.837Z,20.16
2022-08-12T14:40:02.571Z,21.14
2022-08-12T14:42:30.389Z,20.94
2022-08-12T14:44:59.657Z,21.67
2022-08-12T14:47:34.966Z,22.67
2022-08-12T14:50:42.049Z,22.55
2022-08-12T14:58:32.048Z,21.84
2022-08-12T15:01:21.445Z,21.58
2022-08-12T15:03:57.006Z,22.56
2022-08-12T15:06:44.717Z,21.81
2022-08-12T15:09:16.377Z,23.19
2022-08-12T15:11:48.945Z,22.01
2022-08-12T15:14:25.520Z,22.31
2022-08-12T15:16:53.904Z,21.58
2022-08-12T15:20:11.162Z,23.25
2022-08-12T15:22:38.456Z,23.08
2022-08-12T15:24:58.630Z,24.41
2022-08-12T15:27:31.638Z,24.77
2022-08-12T15:29:59.738Z,24.49
2022-08-12T15:32:31.769Z,25.25
2022-08-12T15:35:00.532Z,25.29
2022-08-12T15:37:58.964Z,25.49
2022-08-12T15:40:30.053Z,27.03
2022-08-12T15:42:59.651Z,28.83
2022-08-12T15:45:27.742Z,28.67
2022-08-12T15:48:16.258Z,28.99
2022-08-12T15:50:45.461Z,29.24
2022-08-12T15:53:16.373Z,29.41
2022-08-12T15:55:46.200Z,29.76
2022-08-12T15:58:16.807Z,30.16
2022-08-12T16:00:45.337Z,31.26
2022-08-12T16:03:14.303Z,29.89
2022-08-12T16:06:11.147Z,29.75
2022-08-12T16:08:36.433Z,29.99
2022-08-12T16:11:07.209Z,31.19
2022-08-12T16:13:44.275Z,31.16
2022-08-12T16:16:24.152Z,30.88
2022-08-12T16:18:56.370Z,31.71
2022-08-12T16:21:52.558Z,30.84
2022-08-12T16:24:12.580Z,31.14
2022-08-12T16:26:44.991Z,32.63
2022-08-12T16:29:15.309Z,32.55
2022-08-12T16:31:44.652Z,32.67
2022-08-12T16:34:26.169Z,32.46
2022-08-12T16:37:07.718Z,32.40
2022-08-12T16:40:01.217Z,33.44
2022-08-12T16:42:28.272Z,32.47
2022-08-12T16:44:57.339Z,33.50
2022-08-12T16:47:27.250Z,33.30
2022-08-12T16:49:57.717Z,32.54
2022-08-12T16:52:25.879Z,33.12
2022-08-12T16:54:54.811Z,33.61
2022-08-12T16:57:35.129Z,32.98
2022-08-12T17:00:07.065Z,32.44
2022-08-12T17:02:36.796Z,33.23
2022-08-12T17:05:06.986Z,34.61
2022-08-12T17:07:43.035Z,36.09
2022-08-12T17:10:13.959Z,34.70
2022-08-12T17:12:46.372Z,35.02
2022-08-12T17:15:25.667Z,34.56
2022-08-12T17:18:39.749Z,35.18
2022-08-12T17:20:57.660Z,34.86
2022-08-12T17:23:48.126Z,35.27
2022-08-12T17:26:22.278Z,35.16
2022-08-12T17:28:52.266Z,34.88
2022-08-12T17:32:01.372Z,34.66
2022-08-12T17:34:30.446Z,34.43
2022-08-12T17:37:01.521Z,33.95
2022-08-12T17:40:15.359Z,34.41
2022-08-12T17:42:32.496Z,34.93
2022-08-12T17:45:17.877Z,35.58
2022-08-12T17:48:04.501Z,35.46
2022-08-12T17:50:34.787Z,36.18
2022-08-12T17:53:03.576Z,36.50
2022-08-12T17:55:43.317Z,36.58
2022-08-12T17:58:15.827Z,36.63
2022-08-12T18:00:45.400Z,37.21
2022-08-12T18:04:04.363Z,37.37
2022-08-12T18:06:14.033Z,37.31
2022-08-12T18:08:53.418Z,37.35
2022-08-12T18:12:03.698Z,37.43
2022-08-12T18:14:28.760Z,37.74
2022-08-12T18:17:00.357Z,37.92
2022-08-12T18:20:04.186Z,38.68
2022-08-12T18:22:22.104Z,39.32
2022-08-12T18:26:12.636Z,39.35
2022-08-12T18:28:15.441Z,39.78
2022-08-12T18:30:52.992Z,39.83
2022-08-12T18:33:25.119Z,39.63
2022-08-12T18:35:55.705Z,39.34
2022-08-12T18:38:26.271Z,39.21
2022-08-12T18:41:21.679Z,39.96
2022-08-12T18:43:59.184Z,40.30
2022-08-12T18:46:33.158Z,41.13
2022-08-12T18:49:16.999Z,41.43
2022-08-12T18:52:01.903Z,41.48
2022-08-12T18:54:33.336Z,41.92
2022-08-12T18:57:04.976Z,42.24
2022-08-12T19:00:02.096Z,42.86
2022-08-12T19:02:23.098Z,42.61
2022-08-12T19:04:53.488Z,43.08
2022-08-12T19:07:29.914Z,45.40
2022-08-12T19:10:14.248Z,44.05
2022-08-12T19:13:00.592Z,43.60
2022-08-12T19:15:30.154Z,45.70
2022-08-12T19:18:02.761Z,44.78
2022-08-12T19:20:31.830Z,44.89
2022-08-12T19:23:07.812Z,46.30
2022-08-12T19:26:00.360Z,46.60
2022-08-12T19:28:35.492Z,46.85
2022-08-12T19:31:55.959Z,47.01
2022-08-12T19:37:26.632Z,46.99
2022-08-12T19:40:09.573Z,46.02
2022-08-12T19:42:57.800Z,46.91
2022-08-12T19:45:43.442Z,47.67
2022-08-12T19:48:18.492Z,46.68
2022-08-12T19:50:50.483Z,48.05
2022-08-12T19:53:23.070Z,47.96
2022-08-12T19:55:54.636Z,48.15
2022-08-12T19:58:24.185Z,48.46
2022-08-12T20:00:54.537Z,49.07
2022-08-12T20:03:39.525Z,48.52
2022-08-12T20:06:13.759Z,49.31
2022-08-12T20:08:49.182Z,50.29
2022-08-12T20:12:12.606Z,52.67
2022-08-12T20:14:17.711Z,53.78
2022-08-12T20:16:51.971Z,54.47
2022-08-12T20:19:21.196Z,54.31
2022-08-12T20:21:51.411Z,56.31
2022-08-12T20:24:23.277Z,57.04
2022-08-12T20:27:00.329Z,57.14
2022-08-12T20:29:35.535Z,57.12
2022-08-12T20:32:06.016Z,59.43
2022-08-12T20:34:38.950Z,62.43
2022-08-12T20:37:07.081Z,61.07
2022-08-12T20:39:55.839Z,59.90
2022-08-12T20:42:31.229Z,60.43
2022-08-12T20:44:59.665Z,61.34
2022-08-12T20:47:41.963Z,65.10
2022-08-12T20:50:14.094Z,62.55
2022-08-12T20:52:45.425Z,62.56
2022-08-12T20:55:15.648Z,66.53
2022-08-12T20:58:02.974Z,63.76
2022-08-12T21:00:33.237Z,68.40
2022-08-12T21:03:20.967Z,67.65
2022-08-12T21:06:10.322Z,68.14
2022-08-12T21:08:41.623Z,66.28
2022-08-12T21:11:10.552Z,64.31
2022-08-12T21:13:41.931Z,63.58
2022-08-12T21:16:10.368Z,66.92
2022-08-12T21:18:38.594Z,63.64
2022-08-12T21:21:24.109Z,64.23
2022-08-12T21:23:52.303Z,65.67
2022-08-12T21:26:24.158Z,65.41
2022-08-12T21:29:01.266Z,65.27
2022-08-12T21:32:39.665Z,68.65
2022-08-12T21:34:26.045Z,70.95
2022-08-12T21:37:01.599Z,72.62
2022-08-12T21:39:39.755Z,71.33
2022-08-12T21:42:20.903Z,71.79
2022-08-12T21:45:47.732Z,73.18
2022-08-12T21:47:45.520Z,73.73
2022-08-12T21:50:15.330Z,73.51
2022-08-12T21:52:43.177Z,79.77
2022-08-12T21:55:18.984Z,74.35
2022-08-12T21:57:53.825Z,74.65
2022-08-12T22:00:33.205Z,73.17
2022-08-12T22:04:03.565Z,73.76
2022-08-12T22:06:30.966Z,69.73
2022-08-12T22:09:17.262Z,74.23
2022-08-12T22:11:56.964Z,71.69
2022-08-12T22:14:28.403Z,75.08
2022-08-12T22:17:00.627Z,72.75
2022-08-12T22:19:28.648Z,80.29
2022-08-12T22:21:58.798Z,73.36
2022-08-12T22:24:31.910Z,74.23
2022-08-12T22:27:17.974Z,74.40
2022-08-12T22:30:05.986Z,73.00
2022-08-12T22:32:41.709Z,73.70
2022-08-12T22:35:29.156Z,72.25
2022-08-12T22:37:57.238Z,73.24
2022-08-12T22:40:25.182Z,75.08
2022-08-12T22:43:14.570Z,77.95
2022-08-12T22:46:00.839Z,77.02
2022-08-12T22:48:30.699Z,81.39
2022-08-12T22:50:59.328Z,80.23
2022-08-12T22:53:36.246Z,81.65
2022-08-12T22:56:06.719Z,80.64
2022-08-12T22:58:36.604Z,77.48
2022-08-12T23:01:10.736Z,78.36
2022-08-12T23:03:48.087Z,82.78
2022-08-12T23:06:21.295Z,79.33
2022-08-12T23:08:49.881Z,78.47
2022-08-12T23:11:23.340Z,80.27
2022-08-12T23:13:55.924Z,82.54
2022-08-12T23:16:28.799Z,78.64
2022-08-12T23:19:10.639Z,79.27
2022-08-12T23:22:03.682Z,80.04
2022-08-12T23:24:41.006Z,77.80
2022-08-12T23:27:44.450Z,82.09
2022-08-12T23:30:18.755Z,80.05
2022-08-12T23:32:54.875Z,79.71
2022-08-12T23:35:45.919Z,83.66
2022-08-12T23:38:30.960Z,78.76
2022-08-12T23:41:01.378Z,75.83
2022-08-12T23:43:39.472Z,81.85
2022-08-12T23:46:10.190Z,81.07
2022-08-12T23:48:38.882Z,83.91
2022-08-12T23:51:22.040Z,82.40
2022-08-12T23:53:54.967Z,80.79
2022-08-12T23:56:24.594Z,84.71
2022-08-12T23:58:55.308Z,86.74
